Boise, ID (83706)

11:53 AM MST on December 21, 2014 (GMT -0700)
Mesa Vista | Change Station
CLOSE
Current Station
Personal Weather Station
Location: Boise, ID
Elevation: 2766 ft
Nearby Weather Stations

Elev 2766 ft 43.60 °N, 116.21 °W | Updated 4 seconds ago

Light Rain
Light Rain Mist
45.3 °F
Feels Like 45 °F
N
0.0
Wind Variable Wind from North
Gusts 0.0 mph

Today
High -- | Low -- °F
--% Chance of Precip.
Yesterday
High -- | Low -- °F
Precip. -- in
8:14 AM 5:11 PM
Waning Crescent, 0% visible
Pressure 29.91 in
Visibility 4.0 miles
Clouds Mostly Cloudy 3000 ft
Overcast 4100 ft
Windchill 45 °F
Dew Point 43 °F
Humidity 92%
Rainfall 0.28 in
Snow Depth Not available.
UV 1 out of 12
Pollen .10 out of 12
Air Quality Not available.
Flu Activity Not available.
SPECI KBOI 211840Z 35011KT 4SM -RA BR BKN030 OVC041 08/07 A2991 RMK AO2 P0002

More Conditions Fewer Conditions

Pressure 29.91 in
Visibility 4.0 miles
Clouds Mostly Cloudy 3000 ft
Overcast 4100 ft
Windchill 45 °F
Dew Point 43 °F
Humidity 92%
Rainfall 0.28 in
Snow Depth Not available.
UV 1 out of 12
Pollen .10 out of 12
Air Quality Not available.
Flu Activity Not available.
SPECI KBOI 211840Z 35011KT 4SM -RA BR BKN030 OVC041 08/07 A2991 RMK AO2 P0002

More Conditions Fewer Conditions

10-Day Weather Forecast

Almanac

Astronomy

Dec. 21, 2014 Rise Set
Actual Time
Civil Twilight
Nautical Twilight
Astronomical Twilight
Moon
Length of Visible Light
Length of Day
Tomorrow will be .
, % of the Moon is Illuminated

Today's Extremes

State Highs State Lows

Community

WunderPhotos

Upload Photos

1,779,451 photos uploaded!

WunderBlogs® & News

Nearby

Air Quality

  Air Quality AQ Index Pollutant
Not available.

Snow Depth

Station Depth Elevation

Earthquake Activity

City Distance Mag. Time & Date
Minimum magnitude displayed is 2.5.

Coastal Water Temperatures

Place Temperature

Nearby Weather Stations